sensor_id;sensor_type;location;lat;lon;timestamp;P1;durP1;ratioP1;P2;durP2;ratioP2
24517;SDS011;12678;51.336;12.406;2023-05-07T00:01:58;12.67;;;6.50;;
24517;SDS011;12678;51.336;12.406;2023-05-07T00:04:24;13.00;;;6.20;;
24517;SDS011;12678;51.336;12.406;2023-05-07T00:06:50;12.40;;;5.57;;
24517;SDS011;12678;51.336;12.406;2023-05-07T00:09:16;13.50;;;6.43;;
24517;SDS011;12678;51.336;12.406;2023-05-07T00:11:42;11.65;;;5.95;;
24517;SDS011;12678;51.336;12.406;2023-05-07T00:14:07;8.77;;;5.28;;
24517;SDS011;12678;51.336;12.406;2023-05-07T00:16:33;12.27;;;6.70;;
24517;SDS011;12678;51.336;12.406;2023-05-07T00:18:59;9.60;;;5.90;;
24517;SDS011;12678;51.336;12.406;2023-05-07T00:21:25;10.20;;;6.05;;
24517;SDS011;12678;51.336;12.406;2023-05-07T00:23:54;10.00;;;5.72;;
24517;SDS011;12678;51.336;12.406;2023-05-07T00:26:19;10.98;;;5.68;;
24517;SDS011;12678;51.336;12.406;2023-05-07T00:28:45;9.50;;;5.88;;
24517;SDS011;12678;51.336;12.406;2023-05-07T00:31:11;12.02;;;5.85;;
24517;SDS011;12678;51.336;12.406;2023-05-07T00:33:37;12.25;;;5.75;;
24517;SDS011;12678;51.336;12.406;2023-05-07T00:36:03;12.30;;;6.28;;
24517;SDS011;12678;51.336;12.406;2023-05-07T00:38:29;10.93;;;6.40;;
24517;SDS011;12678;51.336;12.406;2023-05-07T00:40:55;11.98;;;6.38;;
24517;SDS011;12678;51.336;12.406;2023-05-07T00:43:20;13.70;;;6.72;;
24517;SDS011;12678;51.336;12.406;2023-05-07T00:45:46;16.20;;;7.72;;
24517;SDS011;12678;51.336;12.406;2023-05-07T00:48:12;14.25;;;7.03;;
24517;SDS011;12678;51.336;12.406;2023-05-07T00:50:38;12.60;;;7.07;;
24517;SDS011;12678;51.336;12.406;2023-05-07T00:53:04;13.95;;;6.35;;
24517;SDS011;12678;51.336;12.406;2023-05-07T00:55:31;13.25;;;6.80;;
24517;SDS011;12678;51.336;12.406;2023-05-07T00:57:57;12.65;;;6.45;;
24517;SDS011;12678;51.336;12.406;2023-05-07T01:00:23;13.35;;;6.78;;
24517;SDS011;12678;51.336;12.406;2023-05-07T01:02:50;17.02;;;7.28;;
24517;SDS011;12678;51.336;12.406;2023-05-07T01:05:16;16.50;;;7.35;;
24517;SDS011;12678;51.336;12.406;2023-05-07T01:07:44;15.68;;;8.27;;
24517;SDS011;12678;51.336;12.406;2023-05-07T01:10:10;18.23;;;8.63;;
24517;SDS011;12678;51.336;12.406;2023-05-07T01:12:37;14.00;;;7.68;;
24517;SDS011;12678;51.336;12.406;2023-05-07T01:15:05;18.17;;;8.27;;
24517;SDS011;12678;51.336;12.406;2023-05-07T01:17:36;14.10;;;7.55;;
24517;SDS011;12678;51.336;12.406;2023-05-07T01:20:03;18.90;;;8.40;;
24517;SDS011;12678;51.336;12.406;2023-05-07T01:22:34;13.95;;;7.47;;
24517;SDS011;12678;51.336;12.406;2023-05-07T01:25:03;16.50;;;8.43;;
24517;SDS011;12678;51.336;12.406;2023-05-07T01:27:29;16.63;;;8.07;;
24517;SDS011;12678;51.336;12.406;2023-05-07T01:29:55;17.17;;;8.07;;
24517;SDS011;12678;51.336;12.406;2023-05-07T01:32:22;18.00;;;8.38;;
24517;SDS011;12678;51.336;12.406;2023-05-07T01:34:53;14.55;;;7.40;;
24517;SDS011;12678;51.336;12.406;2023-05-07T01:37:22;14.60;;;7.45;;
24517;SDS011;12678;51.336;12.406;2023-05-07T01:39:48;14.60;;;7.63;;
24517;SDS011;12678;51.336;12.406;2023-05-07T01:42:14;16.83;;;8.75;;
24517;SDS011;12678;51.336;12.406;2023-05-07T01:44:40;18.80;;;8.60;;
24517;SDS011;12678;51.336;12.406;2023-05-07T01:47:06;17.33;;;8.98;;
24517;SDS011;12678;51.336;12.406;2023-05-07T01:49:32;15.90;;;8.80;;
24517;SDS011;12678;51.336;12.406;2023-05-07T01:51:58;17.50;;;8.85;;
24517;SDS011;12678;51.336;12.406;2023-05-07T01:54:27;22.95;;;9.55;;
24517;SDS011;12678;51.336;12.406;2023-05-07T01:56:53;19.95;;;9.18;;
24517;SDS011;12678;51.336;12.406;2023-05-07T01:59:20;21.38;;;9.98;;
24517;SDS011;12678;51.336;12.406;2023-05-07T02:01:45;18.52;;;9.93;;
24517;SDS011;12678;51.336;12.406;2023-05-07T02:04:11;19.70;;;9.48;;
24517;SDS011;12678;51.336;12.406;2023-05-07T02:06:36;21.13;;;10.73;;
24517;SDS011;12678;51.336;12.406;2023-05-07T02:09:02;20.38;;;10.25;;
24517;SDS011;12678;51.336;12.406;2023-05-07T02:11:28;20.27;;;9.60;;
24517;SDS011;12678;51.336;12.406;2023-05-07T02:13:54;19.77;;;10.63;;
24517;SDS011;12678;51.336;12.406;2023-05-07T02:16:20;19.77;;;9.23;;
24517;SDS011;12678;51.336;12.406;2023-05-07T02:18:46;20.55;;;10.27;;
24517;SDS011;12678;51.336;12.406;2023-05-07T02:21:12;20.58;;;10.25;;
24517;SDS011;12678;51.336;12.406;2023-05-07T02:23:37;21.85;;;10.70;;
24517;SDS011;12678;51.336;12.406;2023-05-07T02:26:03;22.10;;;10.60;;
24517;SDS011;12678;51.336;12.406;2023-05-07T02:28:29;21.83;;;9.82;;
24517;SDS011;12678;51.336;12.406;2023-05-07T02:30:55;20.38;;;10.75;;
24517;SDS011;12678;51.336;12.406;2023-05-07T02:33:23;23.30;;;9.90;;
24517;SDS011;12678;51.336;12.406;2023-05-07T02:35:48;23.45;;;11.88;;
24517;SDS011;12678;51.336;12.406;2023-05-07T02:38:14;22.33;;;10.88;;
24517;SDS011;12678;51.336;12.406;2023-05-07T02:40:40;21.75;;;10.50;;
24517;SDS011;12678;51.336;12.406;2023-05-07T02:43:05;23.85;;;11.13;;
24517;SDS011;12678;51.336;12.406;2023-05-07T02:45:32;22.17;;;10.18;;
24517;SDS011;12678;51.336;12.406;2023-05-07T02:47:58;20.10;;;10.05;;
24517;SDS011;12678;51.336;12.406;2023-05-07T02:50:24;19.38;;;10.18;;
24517;SDS011;12678;51.336;12.406;2023-05-07T02:52:50;18.90;;;9.70;;
24517;SDS011;12678;51.336;12.406;2023-05-07T02:55:15;18.75;;;9.55;;
24517;SDS011;12678;51.336;12.406;2023-05-07T02:57:41;20.02;;;10.07;;
24517;SDS011;12678;51.336;12.406;2023-05-07T03:00:13;19.80;;;9.57;;
24517;SDS011;12678;51.336;12.406;2023-05-07T03:02:40;19.02;;;9.63;;
24517;SDS011;12678;51.336;12.406;2023-05-07T03:05:06;16.88;;;9.60;;
24517;SDS011;12678;51.336;12.406;2023-05-07T03:07:33;19.88;;;9.45;;
24517;SDS011;12678;51.336;12.406;2023-05-07T03:10:00;17.70;;;8.90;;
24517;SDS011;12678;51.336;12.406;2023-05-07T03:12:25;18.48;;;9.60;;
24517;SDS011;12678;51.336;12.406;2023-05-07T03:14:51;18.50;;;10.43;;
24517;SDS011;12678;51.336;12.406;2023-05-07T03:17:16;18.45;;;9.60;;
24517;SDS011;12678;51.336;12.406;2023-05-07T03:19:42;17.67;;;9.07;;
24517;SDS011;12678;51.336;12.406;2023-05-07T03:22:07;17.63;;;8.90;;
24517;SDS011;12678;51.336;12.406;2023-05-07T03:24:33;20.67;;;9.55;;
24517;SDS011;12678;51.336;12.406;2023-05-07T03:26:59;16.63;;;9.75;;
24517;SDS011;12678;51.336;12.406;2023-05-07T03:29:26;18.70;;;10.00;;
24517;SDS011;12678;51.336;12.406;2023-05-07T03:31:51;15.55;;;9.50;;
24517;SDS011;12678;51.336;12.406;2023-05-07T03:34:17;19.88;;;9.57;;
24517;SDS011;12678;51.336;12.406;2023-05-07T03:36:46;16.52;;;8.93;;
24517;SDS011;12678;51.336;12.406;2023-05-07T03:39:15;17.42;;;9.18;;
24517;SDS011;12678;51.336;12.406;2023-05-07T03:41:41;18.20;;;8.93;;
24517;SDS011;12678;51.336;12.406;2023-05-07T03:44:07;19.45;;;8.88;;
24517;SDS011;12678;51.336;12.406;2023-05-07T03:46:33;19.63;;;8.63;;
24517;SDS011;12678;51.336;12.406;2023-05-07T03:48:59;19.85;;;8.60;;
24517;SDS011;12678;51.336;12.406;2023-05-07T03:51:25;19.40;;;9.60;;
24517;SDS011;12678;51.336;12.406;2023-05-07T03:53:51;19.17;;;9.05;;
24517;SDS011;12678;51.336;12.406;2023-05-07T03:56:18;23.10;;;9.80;;
24517;SDS011;12678;51.336;12.406;2023-05-07T03:58:44;19.35;;;9.27;;
24517;SDS011;12678;51.336;12.406;2023-05-07T04:01:10;14.48;;;9.05;;
24517;SDS011;12678;51.336;12.406;2023-05-07T04:03:36;20.25;;;10.13;;
24517;SDS011;12678;51.336;12.406;2023-05-07T04:06:02;18.77;;;9.40;;
24517;SDS011;12678;51.336;12.406;2023-05-07T04:08:27;16.75;;;9.05;;
24517;SDS011;12678;51.336;12.406;2023-05-07T04:10:57;17.95;;;9.18;;
24517;SDS011;12678;51.336;12.406;2023-05-07T04:13:23;17.67;;;9.00;;
24517;SDS011;12678;51.336;12.406;2023-05-07T04:15:50;17.83;;;9.15;;
24517;SDS011;12678;51.336;12.406;2023-05-07T04:18:16;20.13;;;9.27;;
24517;SDS011;12678;51.336;12.406;2023-05-07T04:20:42;19.00;;;9.02;;
24517;SDS011;12678;51.336;12.406;2023-05-07T04:23:08;24.27;;;9.27;;
24517;SDS011;12678;51.336;12.406;2023-05-07T04:25:34;18.05;;;8.95;;
24517;SDS011;12678;51.336;12.406;2023-05-07T04:28:00;21.08;;;9.48;;
24517;SDS011;12678;51.336;12.406;2023-05-07T04:30:26;19.10;;;9.15;;
24517;SDS011;12678;51.336;12.406;2023-05-07T04:32:52;17.63;;;9.20;;
24517;SDS011;12678;51.336;12.406;2023-05-07T04:35:18;17.73;;;9.10;;
24517;SDS011;12678;51.336;12.406;2023-05-07T04:37:44;20.40;;;9.32;;
24517;SDS011;12678;51.336;12.406;2023-05-07T04:40:09;17.38;;;9.13;;
24517;SDS011;12678;51.336;12.406;2023-05-07T04:42:35;20.27;;;8.77;;
24517;SDS011;12678;51.336;12.406;2023-05-07T04:45:01;15.02;;;9.07;;
24517;SDS011;12678;51.336;12.406;2023-05-07T04:47:27;16.73;;;8.90;;
24517;SDS011;12678;51.336;12.406;2023-05-07T04:49:52;16.35;;;8.55;;
24517;SDS011;12678;51.336;12.406;2023-05-07T04:52:18;19.52;;;8.25;;
24517;SDS011;12678;51.336;12.406;2023-05-07T04:54:44;17.40;;;8.82;;
24517;SDS011;12678;51.336;12.406;2023-05-07T04:57:09;15.98;;;7.88;;
24517;SDS011;12678;51.336;12.406;2023-05-07T04:59:35;18.63;;;8.98;;
24517;SDS011;12678;51.336;12.406;2023-05-07T05:02:01;16.17;;;7.82;;
24517;SDS011;12678;51.336;12.406;2023-05-07T05:04:29;19.75;;;9.00;;
24517;SDS011;12678;51.336;12.406;2023-05-07T05:06:54;19.63;;;8.63;;
24517;SDS011;12678;51.336;12.406;2023-05-07T05:09:20;16.98;;;7.80;;
24517;SDS011;12678;51.336;12.406;2023-05-07T05:11:46;19.38;;;7.97;;
24517;SDS011;12678;51.336;12.406;2023-05-07T05:14:11;15.75;;;8.23;;
24517;SDS011;12678;51.336;12.406;2023-05-07T05:16:37;10.90;;;6.32;;
24517;SDS011;12678;51.336;12.406;2023-05-07T05:19:02;14.00;;;8.23;;
24517;SDS011;12678;51.336;12.406;2023-05-07T05:21:28;14.00;;;7.63;;
24517;SDS011;12678;51.336;12.406;2023-05-07T05:23:54;22.33;;;7.75;;
24517;SDS011;12678;51.336;12.406;2023-05-07T05:26:19;16.17;;;7.72;;
24517;SDS011;12678;51.336;12.406;2023-05-07T05:28:46;11.73;;;7.15;;
24517;SDS011;12678;51.336;12.406;2023-05-07T05:31:12;13.93;;;6.97;;
24517;SDS011;12678;51.336;12.406;2023-05-07T05:33:37;13.88;;;7.47;;
24517;SDS011;12678;51.336;12.406;2023-05-07T05:36:03;14.45;;;6.88;;
24517;SDS011;12678;51.336;12.406;2023-05-07T05:38:29;16.52;;;6.97;;
24517;SDS011;12678;51.336;12.406;2023-05-07T05:40:55;11.73;;;5.95;;
24517;SDS011;12678;51.336;12.406;2023-05-07T05:43:20;10.70;;;6.00;;
24517;SDS011;12678;51.336;12.406;2023-05-07T05:45:46;13.45;;;6.93;;
24517;SDS011;12678;51.336;12.406;2023-05-07T05:48:11;13.60;;;6.28;;
24517;SDS011;12678;51.336;12.406;2023-05-07T05:50:37;9.90;;;5.80;;
24517;SDS011;12678;51.336;12.406;2023-05-07T05:53:02;10.27;;;6.40;;
24517;SDS011;12678;51.336;12.406;2023-05-07T05:55:28;11.23;;;5.88;;
24517;SDS011;12678;51.336;12.406;2023-05-07T05:57:54;12.25;;;6.20;;
24517;SDS011;12678;51.336;12.406;2023-05-07T06:00:19;15.60;;;7.07;;
24517;SDS011;12678;51.336;12.406;2023-05-07T06:02:47;13.48;;;7.78;;
24517;SDS011;12678;51.336;12.406;2023-05-07T06:05:13;14.57;;;6.82;;
24517;SDS011;12678;51.336;12.406;2023-05-07T06:07:39;13.90;;;7.05;;
24517;SDS011;12678;51.336;12.406;2023-05-07T06:10:05;14.68;;;7.30;;
24517;SDS011;12678;51.336;12.406;2023-05-07T06:12:31;17.90;;;7.65;;
24517;SDS011;12678;51.336;12.406;2023-05-07T06:14:57;12.50;;;6.80;;
24517;SDS011;12678;51.336;12.406;2023-05-07T06:17:23;14.68;;;7.38;;
24517;SDS011;12678;51.336;12.406;2023-05-07T06:19:49;17.83;;;7.35;;
24517;SDS011;12678;51.336;12.406;2023-05-07T06:22:16;13.80;;;7.05;;
24517;SDS011;12678;51.336;12.406;2023-05-07T06:24:41;14.07;;;7.32;;
24517;SDS011;12678;51.336;12.406;2023-05-07T06:27:07;13.25;;;7.85;;
24517;SDS011;12678;51.336;12.406;2023-05-07T06:29:33;21.35;;;7.53;;
24517;SDS011;12678;51.336;12.406;2023-05-07T06:32:06;15.95;;;8.52;;
24517;SDS011;12678;51.336;12.406;2023-05-07T06:34:32;20.50;;;8.20;;
24517;SDS011;12678;51.336;12.406;2023-05-07T06:36:58;20.90;;;8.25;;
24517;SDS011;12678;51.336;12.406;2023-05-07T06:39:24;19.05;;;7.32;;
24517;SDS011;12678;51.336;12.406;2023-05-07T06:41:50;16.27;;;7.47;;
24517;SDS011;12678;51.336;12.406;2023-05-07T06:44:15;13.43;;;7.60;;
24517;SDS011;12678;51.336;12.406;2023-05-07T06:46:41;16.85;;;7.93;;
24517;SDS011;12678;51.336;12.406;2023-05-07T06:49:06;15.52;;;7.55;;
24517;SDS011;12678;51.336;12.406;2023-05-07T06:51:32;11.80;;;6.75;;
24517;SDS011;12678;51.336;12.406;2023-05-07T06:53:58;12.55;;;6.85;;
24517;SDS011;12678;51.336;12.406;2023-05-07T06:56:23;15.52;;;7.70;;
24517;SDS011;12678;51.336;12.406;2023-05-07T06:58:49;12.57;;;6.47;;
24517;SDS011;12678;51.336;12.406;2023-05-07T07:01:15;17.13;;;7.85;;
24517;SDS011;12678;51.336;12.406;2023-05-07T07:03:41;13.57;;;7.60;;
24517;SDS011;12678;51.336;12.406;2023-05-07T07:06:06;13.05;;;6.03;;
24517;SDS011;12678;51.336;12.406;2023-05-07T07:08:32;15.93;;;7.05;;
24517;SDS011;12678;51.336;12.406;2023-05-07T07:10:58;12.15;;;6.38;;
24517;SDS011;12678;51.336;12.406;2023-05-07T07:13:23;12.85;;;6.43;;
24517;SDS011;12678;51.336;12.406;2023-05-07T07:15:49;13.75;;;6.65;;
24517;SDS011;12678;51.336;12.406;2023-05-07T07:18:15;12.20;;;6.30;;
24517;SDS011;12678;51.336;12.406;2023-05-07T07:20:40;11.40;;;6.15;;
24517;SDS011;12678;51.336;12.406;2023-05-07T07:23:06;11.88;;;6.15;;
24517;SDS011;12678;51.336;12.406;2023-05-07T07:25:32;12.45;;;5.85;;
24517;SDS011;12678;51.336;12.406;2023-05-07T07:27:58;10.45;;;5.90;;
24517;SDS011;12678;51.336;12.406;2023-05-07T07:30:24;9.45;;;5.82;;
24517;SDS011;12678;51.336;12.406;2023-05-07T07:32:51;7.35;;;4.75;;
24517;SDS011;12678;51.336;12.406;2023-05-07T07:35:17;11.05;;;5.90;;
24517;SDS011;12678;51.336;12.406;2023-05-07T07:37:43;10.40;;;5.10;;
24517;SDS011;12678;51.336;12.406;2023-05-07T07:40:09;8.38;;;5.18;;
24517;SDS011;12678;51.336;12.406;2023-05-07T07:42:36;10.88;;;5.13;;
24517;SDS011;12678;51.336;12.406;2023-05-07T07:45:02;7.65;;;4.65;;
24517;SDS011;12678;51.336;12.406;2023-05-07T07:47:28;6.93;;;5.03;;
24517;SDS011;12678;51.336;12.406;2023-05-07T07:49:53;6.72;;;4.53;;
24517;SDS011;12678;51.336;12.406;2023-05-07T07:52:19;8.75;;;5.05;;
24517;SDS011;12678;51.336;12.406;2023-05-07T07:54:45;7.97;;;5.03;;
24517;SDS011;12678;51.336;12.406;2023-05-07T07:57:10;6.72;;;4.00;;
24517;SDS011;12678;51.336;12.406;2023-05-07T07:59:36;8.80;;;4.68;;
24517;SDS011;12678;51.336;12.406;2023-05-07T08:02:02;8.23;;;4.97;;
24517;SDS011;12678;51.336;12.406;2023-05-07T08:04:27;6.68;;;4.10;;
24517;SDS011;12678;51.336;12.406;2023-05-07T08:06:53;8.45;;;3.95;;
24517;SDS011;12678;51.336;12.406;2023-05-07T08:09:22;7.72;;;4.20;;
24517;SDS011;12678;51.336;12.406;2023-05-07T08:11:48;6.45;;;4.22;;
24517;SDS011;12678;51.336;12.406;2023-05-07T08:14:13;7.40;;;4.25;;
24517;SDS011;12678;51.336;12.406;2023-05-07T08:16:40;8.60;;;4.05;;
24517;SDS011;12678;51.336;12.406;2023-05-07T08:19:06;10.75;;;4.30;;
24517;SDS011;12678;51.336;12.406;2023-05-07T08:21:31;6.43;;;4.07;;
24517;SDS011;12678;51.336;12.406;2023-05-07T08:23:57;6.38;;;4.43;;
24517;SDS011;12678;51.336;12.406;2023-05-07T08:26:23;6.38;;;3.92;;
24517;SDS011;12678;51.336;12.406;2023-05-07T08:28:48;7.13;;;4.25;;
24517;SDS011;12678;51.336;12.406;2023-05-07T08:31:14;4.95;;;3.58;;
24517;SDS011;12678;51.336;12.406;2023-05-07T08:33:39;6.53;;;4.20;;
24517;SDS011;12678;51.336;12.406;2023-05-07T08:36:05;5.70;;;3.97;;
24517;SDS011;12678;51.336;12.406;2023-05-07T08:38:31;5.55;;;3.60;;
24517;SDS011;12678;51.336;12.406;2023-05-07T08:40:56;5.75;;;3.75;;
24517;SDS011;12678;51.336;12.406;2023-05-07T08:43:22;7.47;;;4.70;;
24517;SDS011;12678;51.336;12.406;2023-05-07T08:45:53;7.00;;;4.32;;
24517;SDS011;12678;51.336;12.406;2023-05-07T08:48:22;6.30;;;4.20;;
24517;SDS011;12678;51.336;12.406;2023-05-07T08:50:51;7.55;;;4.32;;
24517;SDS011;12678;51.336;12.406;2023-05-07T08:53:17;7.38;;;4.20;;
24517;SDS011;12678;51.336;12.406;2023-05-07T08:55:43;7.88;;;4.70;;
24517;SDS011;12678;51.336;12.406;2023-05-07T08:58:09;6.57;;;4.40;;
24517;SDS011;12678;51.336;12.406;2023-05-07T09:00:36;8.73;;;5.22;;
24517;SDS011;12678;51.336;12.406;2023-05-07T09:03:02;7.75;;;4.32;;
24517;SDS011;12678;51.336;12.406;2023-05-07T09:05:27;9.07;;;5.07;;
24517;SDS011;12678;51.336;12.406;2023-05-07T09:07:53;6.10;;;4.07;;
24517;SDS011;12678;51.336;12.406;2023-05-07T09:10:20;6.95;;;4.00;;
24517;SDS011;12678;51.336;12.406;2023-05-07T09:12:46;5.53;;;3.67;;
24517;SDS011;12678;51.336;12.406;2023-05-07T09:15:12;7.55;;;4.28;;
24517;SDS011;12678;51.336;12.406;2023-05-07T09:17:38;8.57;;;4.68;;
24517;SDS011;12678;51.336;12.406;2023-05-07T09:20:06;6.85;;;4.15;;
24517;SDS011;12678;51.336;12.406;2023-05-07T09:22:32;6.82;;;4.30;;
24517;SDS011;12678;51.336;12.406;2023-05-07T09:24:58;7.70;;;4.50;;
24517;SDS011;12678;51.336;12.406;2023-05-07T09:27:24;6.97;;;4.43;;
24517;SDS011;12678;51.336;12.406;2023-05-07T09:29:51;7.00;;;4.43;;
24517;SDS011;12678;51.336;12.406;2023-05-07T09:32:16;8.85;;;5.03;;
24517;SDS011;12678;51.336;12.406;2023-05-07T09:34:42;13.98;;;4.72;;
24517;SDS011;12678;51.336;12.406;2023-05-07T09:37:08;9.43;;;4.15;;
24517;SDS011;12678;51.336;12.406;2023-05-07T09:42:06;7.80;;;4.38;;
24517;SDS011;12678;51.336;12.406;2023-05-07T09:44:33;7.10;;;4.25;;
24517;SDS011;12678;51.336;12.406;2023-05-07T09:47:00;7.75;;;3.92;;
24517;SDS011;12678;51.336;12.406;2023-05-07T09:49:28;8.23;;;4.85;;
24517;SDS011;12678;51.336;12.406;2023-05-07T09:51:55;7.90;;;5.00;;
24517;SDS011;12678;51.336;12.406;2023-05-07T09:54:21;8.00;;;4.50;;
24517;SDS011;12678;51.336;12.406;2023-05-07T09:56:48;9.25;;;5.15;;
24517;SDS011;12678;51.336;12.406;2023-05-07T09:59:14;6.13;;;4.70;;
24517;SDS011;12678;51.336;12.406;2023-05-07T10:01:41;8.07;;;5.05;;
24517;SDS011;12678;51.336;12.406;2023-05-07T10:04:09;8.15;;;4.40;;
24517;SDS011;12678;51.336;12.406;2023-05-07T10:06:36;9.65;;;5.15;;
24517;SDS011;12678;51.336;12.406;2023-05-07T10:09:03;6.72;;;4.05;;
24517;SDS011;12678;51.336;12.406;2023-05-07T10:11:36;8.45;;;3.92;;
24517;SDS011;12678;51.336;12.406;2023-05-07T10:14:02;4.95;;;3.28;;
24517;SDS011;12678;51.336;12.406;2023-05-07T10:16:31;9.63;;;4.00;;
24517;SDS011;12678;51.336;12.406;2023-05-07T10:19:01;5.03;;;3.63;;
24517;SDS011;12678;51.336;12.406;2023-05-07T10:21:28;7.40;;;3.75;;
24517;SDS011;12678;51.336;12.406;2023-05-07T10:26:23;4.72;;;3.47;;
24517;SDS011;12678;51.336;12.406;2023-05-07T10:28:54;6.88;;;4.38;;
24517;SDS011;12678;51.336;12.406;2023-05-07T10:31:42;6.45;;;4.03;;
24517;SDS011;12678;51.336;12.406;2023-05-07T10:34:28;7.45;;;3.67;;
24517;SDS011;12678;51.336;12.406;2023-05-07T10:37:06;5.60;;;3.58;;
24517;SDS011;12678;51.336;12.406;2023-05-07T10:39:33;5.40;;;3.83;;
24517;SDS011;12678;51.336;12.406;2023-05-07T10:42:12;8.65;;;3.78;;
24517;SDS011;12678;51.336;12.406;2023-05-07T10:44:38;7.32;;;3.30;;
24517;SDS011;12678;51.336;12.406;2023-05-07T10:47:05;5.53;;;3.20;;
24517;SDS011;12678;51.336;12.406;2023-05-07T10:49:33;7.68;;;4.40;;
24517;SDS011;12678;51.336;12.406;2023-05-07T10:52:12;7.63;;;4.22;;
24517;SDS011;12678;51.336;12.406;2023-05-07T10:54:46;10.05;;;5.07;;
24517;SDS011;12678;51.336;12.406;2023-05-07T10:59:56;8.10;;;5.20;;
24517;SDS011;12678;51.336;12.406;2023-05-07T11:02:21;7.93;;;4.68;;
24517;SDS011;12678;51.336;12.406;2023-05-07T11:07:53;7.68;;;5.18;;
24517;SDS011;12678;51.336;12.406;2023-05-07T11:10:20;7.35;;;4.75;;
24517;SDS011;12678;51.336;12.406;2023-05-07T11:12:46;8.15;;;4.88;;
24517;SDS011;12678;51.336;12.406;2023-05-07T11:15:12;8.23;;;4.32;;
24517;SDS011;12678;51.336;12.406;2023-05-07T11:17:59;11.43;;;4.65;;
24517;SDS011;12678;51.336;12.406;2023-05-07T11:23:54;8.40;;;3.78;;
24517;SDS011;12678;51.336;12.406;2023-05-07T11:26:13;6.57;;;4.35;;
24517;SDS011;12678;51.336;12.406;2023-05-07T11:28:43;5.85;;;3.80;;
24517;SDS011;12678;51.336;12.406;2023-05-07T11:31:09;6.43;;;4.53;;
24517;SDS011;12678;51.336;12.406;2023-05-07T11:33:36;7.78;;;4.80;;
24517;SDS011;12678;51.336;12.406;2023-05-07T11:36:03;6.32;;;4.20;;
24517;SDS011;12678;51.336;12.406;2023-05-07T11:38:30;6.82;;;4.38;;
24517;SDS011;12678;51.336;12.406;2023-05-07T11:40:59;6.60;;;3.92;;
24517;SDS011;12678;51.336;12.406;2023-05-07T11:43:30;7.25;;;4.05;;
24517;SDS011;12678;51.336;12.406;2023-05-07T11:46:10;6.50;;;4.10;;
24517;SDS011;12678;51.336;12.406;2023-05-07T11:48:37;9.15;;;4.95;;
24517;SDS011;12678;51.336;12.406;2023-05-07T11:51:04;6.93;;;4.13;;
24517;SDS011;12678;51.336;12.406;2023-05-07T11:53:41;6.78;;;4.22;;
24517;SDS011;12678;51.336;12.406;2023-05-07T11:56:08;10.70;;;4.97;;
24517;SDS011;12678;51.336;12.406;2023-05-07T11:58:35;7.55;;;4.47;;
24517;SDS011;12678;51.336;12.406;2023-05-07T12:01:01;6.45;;;4.20;;
24517;SDS011;12678;51.336;12.406;2023-05-07T12:03:26;6.97;;;4.22;;
24517;SDS011;12678;51.336;12.406;2023-05-07T12:05:52;7.97;;;4.93;;
24517;SDS011;12678;51.336;12.406;2023-05-07T12:08:18;6.55;;;4.18;;
24517;SDS011;12678;51.336;12.406;2023-05-07T12:10:46;5.43;;;3.97;;
24517;SDS011;12678;51.336;12.406;2023-05-07T12:15:45;7.82;;;4.65;;
24517;SDS011;12678;51.336;12.406;2023-05-07T12:18:11;9.70;;;5.68;;
24517;SDS011;12678;51.336;12.406;2023-05-07T12:20:38;9.07;;;4.50;;
24517;SDS011;12678;51.336;12.406;2023-05-07T12:23:04;8.10;;;4.53;;
24517;SDS011;12678;51.336;12.406;2023-05-07T12:25:37;7.35;;;4.38;;
24517;SDS011;12678;51.336;12.406;2023-05-07T12:28:05;9.45;;;5.25;;
24517;SDS011;12678;51.336;12.406;2023-05-07T12:30:37;6.80;;;3.92;;
24517;SDS011;12678;51.336;12.406;2023-05-07T12:33:04;7.82;;;4.82;;
24517;SDS011;12678;51.336;12.406;2023-05-07T12:35:30;8.07;;;4.22;;
24517;SDS011;12678;51.336;12.406;2023-05-07T12:37:58;6.85;;;4.50;;
24517;SDS011;12678;51.336;12.406;2023-05-07T12:40:35;7.60;;;5.03;;
24517;SDS011;12678;51.336;12.406;2023-05-07T12:43:02;7.32;;;4.22;;
24517;SDS011;12678;51.336;12.406;2023-05-07T12:45:28;7.75;;;4.57;;
24517;SDS011;12678;51.336;12.406;2023-05-07T12:47:53;7.53;;;4.20;;
24517;SDS011;12678;51.336;12.406;2023-05-07T12:50:19;7.32;;;4.43;;
24517;SDS011;12678;51.336;12.406;2023-05-07T12:52:48;7.00;;;4.10;;
24517;SDS011;12678;51.336;12.406;2023-05-07T12:55:14;4.88;;;4.05;;
24517;SDS011;12678;51.336;12.406;2023-05-07T12:57:41;5.93;;;3.65;;
24517;SDS011;12678;51.336;12.406;2023-05-07T13:00:12;5.25;;;3.47;;
24517;SDS011;12678;51.336;12.406;2023-05-07T13:02:39;8.60;;;4.63;;
24517;SDS011;12678;51.336;12.406;2023-05-07T13:05:06;8.88;;;3.83;;
24517;SDS011;12678;51.336;12.406;2023-05-07T13:07:33;7.07;;;4.47;;
24517;SDS011;12678;51.336;12.406;2023-05-07T13:09:59;6.70;;;3.88;;
24517;SDS011;12678;51.336;12.406;2023-05-07T13:12:25;5.90;;;3.50;;
24517;SDS011;12678;51.336;12.406;2023-05-07T13:14:50;6.55;;;3.83;;
24517;SDS011;12678;51.336;12.406;2023-05-07T13:17:16;6.38;;;3.72;;
24517;SDS011;12678;51.336;12.406;2023-05-07T13:19:43;5.82;;;3.80;;
24517;SDS011;12678;51.336;12.406;2023-05-07T13:22:09;5.93;;;3.85;;
24517;SDS011;12678;51.336;12.406;2023-05-07T13:24:34;7.35;;;3.70;;
24517;SDS011;12678;51.336;12.406;2023-05-07T13:27:00;4.80;;;3.42;;
24517;SDS011;12678;51.336;12.406;2023-05-07T13:29:26;6.55;;;3.83;;
24517;SDS011;12678;51.336;12.406;2023-05-07T13:31:57;5.60;;;3.40;;
24517;SDS011;12678;51.336;12.406;2023-05-07T13:34:23;6.57;;;3.05;;
24517;SDS011;12678;51.336;12.406;2023-05-07T13:36:49;5.55;;;3.22;;
24517;SDS011;12678;51.336;12.406;2023-05-07T13:39:15;5.53;;;3.38;;
24517;SDS011;12678;51.336;12.406;2023-05-07T13:41:40;4.32;;;3.03;;
24517;SDS011;12678;51.336;12.406;2023-05-07T13:44:06;9.20;;;3.53;;
24517;SDS011;12678;51.336;12.406;2023-05-07T13:46:32;5.75;;;3.30;;
24517;SDS011;12678;51.336;12.406;2023-05-07T13:48:57;4.50;;;3.10;;
24517;SDS011;12678;51.336;12.406;2023-05-07T13:51:23;5.20;;;3.30;;
24517;SDS011;12678;51.336;12.406;2023-05-07T13:53:49;4.80;;;3.03;;
24517;SDS011;12678;51.336;12.406;2023-05-07T13:56:15;5.35;;;3.05;;
24517;SDS011;12678;51.336;12.406;2023-05-07T13:58:40;5.85;;;2.80;;
24517;SDS011;12678;51.336;12.406;2023-05-07T14:01:06;4.13;;;2.78;;
24517;SDS011;12678;51.336;12.406;2023-05-07T14:03:32;6.25;;;3.00;;
24517;SDS011;12678;51.336;12.406;2023-05-07T14:05:58;3.83;;;2.50;;
24517;SDS011;12678;51.336;12.406;2023-05-07T14:08:26;5.20;;;3.10;;
24517;SDS011;12678;51.336;12.406;2023-05-07T14:10:52;4.05;;;2.63;;
24517;SDS011;12678;51.336;12.406;2023-05-07T14:13:18;5.45;;;2.95;;
24517;SDS011;12678;51.336;12.406;2023-05-07T14:15:43;3.97;;;2.75;;
24517;SDS011;12678;51.336;12.406;2023-05-07T14:18:14;3.75;;;2.58;;
24517;SDS011;12678;51.336;12.406;2023-05-07T14:20:40;4.78;;;2.40;;
24517;SDS011;12678;51.336;12.406;2023-05-07T14:23:06;4.43;;;2.92;;
24517;SDS011;12678;51.336;12.406;2023-05-07T14:25:31;4.00;;;2.50;;
24517;SDS011;12678;51.336;12.406;2023-05-07T14:27:57;3.67;;;2.72;;
24517;SDS011;12678;51.336;12.406;2023-05-07T14:30:23;4.93;;;2.85;;
24517;SDS011;12678;51.336;12.406;2023-05-07T14:32:49;5.53;;;2.22;;
24517;SDS011;12678;51.336;12.406;2023-05-07T14:35:16;4.03;;;2.35;;
24517;SDS011;12678;51.336;12.406;2023-05-07T14:37:42;5.28;;;2.92;;
24517;SDS011;12678;51.336;12.406;2023-05-07T14:40:09;3.30;;;2.25;;